createdAt,value
2023-02-01T00:00:05.766Z,1005.68
2023-02-01T00:01:05.754Z,1005.75
2023-02-01T00:02:05.744Z,1005.67
2023-02-01T00:03:05.732Z,1005.75
2023-02-01T00:04:05.716Z,1005.69
2023-02-01T00:05:05.712Z,1005.67
2023-02-01T00:06:05.731Z,1005.71
2023-02-01T00:07:05.689Z,1005.67
2023-02-01T00:08:05.692Z,1005.70
2023-02-01T00:09:05.661Z,1005.64
2023-02-01T00:10:05.659Z,1005.66
2023-02-01T00:11:05.647Z,1005.66
2023-02-01T00:12:05.633Z,1005.64
2023-02-01T00:13:05.616Z,1005.67
2023-02-01T00:14:05.612Z,1005.71
2023-02-01T00:15:05.650Z,1005.65
2023-02-01T00:16:05.672Z,1005.67
2023-02-01T00:17:05.594Z,1005.71
2023-02-01T00:18:05.561Z,1005.74
2023-02-01T00:19:05.561Z,1005.77
2023-02-01T00:20:05.594Z,1005.76
2023-02-01T00:21:05.571Z,1005.73
2023-02-01T00:22:05.520Z,1005.73
2023-02-01T00:23:05.521Z,1005.63
2023-02-01T00:24:05.511Z,1005.64
2023-02-01T00:25:05.496Z,1005.72
2023-02-01T00:26:05.472Z,1005.72
2023-02-01T00:27:05.472Z,1005.73
2023-02-01T00:28:05.458Z,1005.71
2023-02-01T00:29:05.481Z,1005.72
2023-02-01T00:30:05.433Z,1005.59
2023-02-01T00:31:05.629Z,1005.69
2023-02-01T00:32:05.536Z,1005.54
2023-02-01T00:33:05.397Z,1005.64
2023-02-01T00:34:05.415Z,1005.59
2023-02-01T00:35:05.380Z,1005.65
2023-02-01T00:36:05.366Z,1005.60
2023-02-01T00:37:05.367Z,1005.65
2023-02-01T00:38:05.347Z,1005.68
2023-02-01T00:39:05.330Z,1005.69
2023-02-01T00:40:05.326Z,1005.71
2023-02-01T00:41:05.318Z,1005.66
2023-02-01T00:42:05.309Z,1005.69
2023-02-01T00:43:05.294Z,1005.67
2023-02-01T00:44:05.290Z,1005.63
2023-02-01T00:45:05.285Z,1005.70
2023-02-01T00:46:05.444Z,1005.69
2023-02-01T00:47:05.284Z,1005.77
2023-02-01T00:48:05.261Z,1005.76
2023-02-01T00:49:05.233Z,1005.76
2023-02-01T00:50:05.315Z,1005.80
2023-02-01T00:51:05.223Z,1005.77
2023-02-01T00:52:05.205Z,1005.72
2023-02-01T00:53:05.193Z,1005.76
2023-02-01T00:54:05.193Z,1005.78
2023-02-01T00:55:05.154Z,1005.70
2023-02-01T00:56:05.155Z,1005.70
2023-02-01T00:57:05.131Z,1005.82
2023-02-01T00:58:05.125Z,1005.72
2023-02-01T00:59:05.124Z,1005.89
2023-02-01T01:00:05.110Z,1005.90
2023-02-01T01:01:05.109Z,1005.83
2023-02-01T01:02:05.115Z,1005.90
2023-02-01T01:03:05.089Z,1005.85
2023-02-01T01:04:05.053Z,1005.87
2023-02-01T01:05:05.048Z,1005.90
2023-02-01T01:06:05.035Z,1005.92
2023-02-01T01:07:05.024Z,1005.96
2023-02-01T01:08:05.016Z,1005.96
2023-02-01T01:09:04.997Z,1005.84
2023-02-01T01:10:04.994Z,1005.88
2023-02-01T01:11:04.991Z,1005.84
2023-02-01T01:12:04.965Z,1005.83
2023-02-01T01:13:04.956Z,1005.82
2023-02-01T01:14:04.951Z,1005.83
2023-02-01T01:15:04.929Z,1005.72
2023-02-01T01:16:04.971Z,1005.76
2023-02-01T01:17:04.916Z,1005.79
2023-02-01T01:18:04.910Z,1005.78
2023-02-01T01:19:04.920Z,1005.75
2023-02-01T01:20:04.886Z,1005.78
2023-02-01T01:21:04.883Z,1005.78
2023-02-01T01:22:04.876Z,1005.71
2023-02-01T01:23:04.850Z,1005.72
2023-02-01T01:24:04.834Z,1005.78
2023-02-01T01:25:04.828Z,1005.71
2023-02-01T01:26:06.723Z,1005.66
2023-02-01T01:27:04.811Z,1005.59
2023-02-01T01:28:04.792Z,1005.65
2023-02-01T01:29:04.785Z,1005.62
2023-02-01T01:30:04.781Z,1005.61
2023-02-01T01:31:04.884Z,1005.60
2023-02-01T01:32:04.759Z,1005.61
2023-02-01T01:33:04.747Z,1005.51
2023-02-01T01:34:04.725Z,1005.51
2023-02-01T01:35:04.752Z,1005.50
2023-02-01T01:36:04.711Z,1005.45
2023-02-01T01:37:04.697Z,1005.36
2023-02-01T01:38:04.703Z,1005.42
2023-02-01T01:39:04.680Z,1005.44
2023-02-01T01:40:04.663Z,1005.41
2023-02-01T01:41:04.651Z,1005.42
2023-02-01T01:42:04.645Z,1005.43
2023-02-01T01:43:04.638Z,1005.40
2023-02-01T01:44:04.627Z,1005.41
2023-02-01T01:45:04.629Z,1005.46
2023-02-01T01:46:04.594Z,1005.38
2023-02-01T01:47:04.586Z,1005.41
2023-02-01T01:48:04.572Z,1005.38
2023-02-01T01:49:04.560Z,1005.35
2023-02-01T01:50:04.548Z,1005.38
2023-02-01T01:51:04.562Z,1005.38
2023-02-01T01:52:04.539Z,1005.32
2023-02-01T01:53:04.534Z,1005.40
2023-02-01T01:54:04.512Z,1005.28
2023-02-01T01:55:04.510Z,1005.29
2023-02-01T01:56:04.483Z,1005.33
2023-02-01T01:57:04.481Z,1005.20
2023-02-01T01:58:04.467Z,1005.29
2023-02-01T01:59:04.453Z,1005.33
2023-02-01T02:00:04.450Z,1005.32
2023-02-01T02:01:04.488Z,1005.48
2023-02-01T02:02:04.475Z,1005.34
2023-02-01T02:03:04.405Z,1005.40
2023-02-01T02:04:04.400Z,1005.34
2023-02-01T02:05:04.396Z,1005.36
2023-02-01T02:06:04.370Z,1005.34
2023-02-01T02:07:04.394Z,1005.32
2023-02-01T02:08:04.351Z,1005.40
2023-02-01T02:09:06.923Z,1005.34
2023-02-01T02:10:04.324Z,1005.27
2023-02-01T02:11:04.325Z,1005.31
2023-02-01T02:12:04.313Z,1005.35
2023-02-01T02:13:04.303Z,1005.35
2023-02-01T02:14:04.340Z,1005.49
2023-02-01T02:15:04.268Z,1005.38
2023-02-01T02:16:04.368Z,1005.43
2023-02-01T02:17:04.245Z,1005.50
2023-02-01T02:18:04.234Z,1005.43
2023-02-01T02:19:04.224Z,1005.48
2023-02-01T02:20:04.213Z,1005.52
2023-02-01T02:21:04.199Z,1005.49
2023-02-01T02:22:04.210Z,1005.43
2023-02-01T02:23:04.215Z,1005.52
2023-02-01T02:24:04.169Z,1005.41
2023-02-01T02:25:04.176Z,1005.43
2023-02-01T02:26:04.145Z,1005.38
2023-02-01T02:27:04.139Z,1005.47
2023-02-01T02:28:04.131Z,1005.38
2023-02-01T02:29:04.132Z,1005.38
2023-02-01T02:30:04.099Z,1005.29
2023-02-01T02:31:04.126Z,1005.29
2023-02-01T02:32:04.084Z,1005.26
2023-02-01T02:33:04.068Z,1005.31
2023-02-01T02:34:04.060Z,1005.27
2023-02-01T02:35:04.045Z,1005.29
2023-02-01T02:36:04.042Z,1005.29
2023-02-01T02:37:04.029Z,1005.25
2023-02-01T02:38:04.017Z,1005.25
2023-02-01T02:39:04.027Z,1005.24
2023-02-01T02:40:03.986Z,1005.30
2023-02-01T02:41:03.975Z,1005.27
2023-02-01T02:42:03.969Z,1005.17
2023-02-01T02:43:03.960Z,1005.26
2023-02-01T02:44:03.945Z,1005.19
2023-02-01T02:45:03.944Z,1005.28
2023-02-01T02:46:04.003Z,1005.22
2023-02-01T02:47:03.911Z,1005.30
2023-02-01T02:48:03.901Z,1005.25
2023-02-01T02:49:03.885Z,1005.29
2023-02-01T02:50:03.874Z,1005.25
2023-02-01T02:51:03.864Z,1005.22
2023-02-01T02:52:03.856Z,1005.26
2023-02-01T02:53:03.845Z,1005.29
2023-02-01T02:54:03.838Z,1005.26
2023-02-01T02:55:03.861Z,1005.20
2023-02-01T02:56:03.813Z,1005.24
2023-02-01T02:57:03.808Z,1005.29
2023-02-01T02:58:03.788Z,1005.32
2023-02-01T02:59:03.780Z,1005.23
2023-02-01T03:00:03.789Z,1005.23
2023-02-01T03:01:03.851Z,1005.29
2023-02-01T03:02:03.748Z,1005.27
2023-02-01T03:03:03.763Z,1005.31
2023-02-01T03:04:03.735Z,1005.17
2023-02-01T03:05:03.714Z,1005.25
2023-02-01T03:06:03.707Z,1005.21
2023-02-01T03:07:03.685Z,1005.21
2023-02-01T03:08:03.680Z,1005.09
2023-02-01T03:09:03.667Z,1005.18
2023-02-01T03:10:03.656Z,1005.17
2023-02-01T03:11:03.675Z,1005.16
2023-02-01T03:12:03.638Z,1005.17
2023-02-01T03:13:03.629Z,1005.08
2023-02-01T03:14:03.622Z,1005.11
2023-02-01T03:15:03.595Z,1005.15
2023-02-01T03:16:03.598Z,1005.05
2023-02-01T03:17:03.577Z,1005.06
2023-02-01T03:18:03.583Z,1005.09
2023-02-01T03:19:03.554Z,1005.00
2023-02-01T03:20:03.537Z,1004.99
2023-02-01T03:21:03.527Z,1004.99
2023-02-01T03:22:03.525Z,1004.87
2023-02-01T03:23:03.512Z,1004.89
2023-02-01T03:24:03.502Z,1004.90
2023-02-01T03:25:03.510Z,1004.97
2023-02-01T03:26:03.477Z,1004.81
2023-02-01T03:27:03.507Z,1004.79
2023-02-01T03:28:03.447Z,1004.79
2023-02-01T03:29:03.444Z,1004.81
2023-02-01T03:30:03.437Z,1004.77
2023-02-01T03:31:03.489Z,1004.73
2023-02-01T03:32:03.540Z,1004.76
2023-02-01T03:33:03.397Z,1004.75
2023-02-01T03:34:03.385Z,1004.70
2023-02-01T03:35:03.375Z,1004.75
2023-02-01T03:36:03.372Z,1004.76
2023-02-01T03:37:03.350Z,1004.65
2023-02-01T03:38:03.338Z,1004.66
2023-02-01T03:39:03.337Z,1004.75
2023-02-01T03:40:03.322Z,1004.69
2023-02-01T03:41:03.310Z,1004.73
2023-02-01T03:42:03.300Z,1004.66
2023-02-01T03:43:03.308Z,1004.60
2023-02-01T03:44:03.292Z,1004.58
2023-02-01T03:45:03.258Z,1004.63
2023-02-01T03:46:03.317Z,1004.55
2023-02-01T03:47:03.241Z,1004.51
2023-02-01T03:48:03.229Z,1004.49
2023-02-01T03:49:03.225Z,1004.57
2023-02-01T03:50:03.202Z,1004.46
2023-02-01T03:51:03.201Z,1004.53
2023-02-01T03:52:03.270Z,1004.62
2023-02-01T03:53:03.169Z,1004.57
2023-02-01T03:54:03.183Z,1004.61
2023-02-01T03:55:03.149Z,1004.58
2023-02-01T03:56:03.134Z,1004.59
2023-02-01T03:57:03.127Z,1004.54
2023-02-01T03:58:03.115Z,1004.54
2023-02-01T03:59:03.130Z,1004.52
2023-02-01T04:00:03.103Z,1004.54
2023-02-01T04:01:03.148Z,1004.53
2023-02-01T04:02:03.131Z,1004.58
2023-02-01T04:03:03.063Z,1004.57
2023-02-01T04:04:03.056Z,1004.57
2023-02-01T04:05:03.037Z,1004.51
2023-02-01T04:06:03.035Z,1004.60
2023-02-01T04:07:03.030Z,1004.62
2023-02-01T04:08:03.016Z,1004.51
2023-02-01T04:09:03.015Z,1004.52
2023-02-01T04:10:02.983Z,1004.48
2023-02-01T04:11:02.976Z,1004.54
2023-02-01T04:12:02.959Z,1004.55
2023-02-01T04:13:02.949Z,1004.55
2023-02-01T04:14:02.971Z,1004.61
2023-02-01T04:15:02.986Z,1004.55
2023-02-01T04:16:02.927Z,1004.49
2023-02-01T04:17:02.917Z,1004.56
2023-02-01T04:18:02.898Z,1004.48
2023-02-01T04:19:02.899Z,1004.59
2023-02-01T04:20:02.898Z,1004.58
2023-02-01T04:21:02.883Z,1004.64
2023-02-01T04:22:02.867Z,1004.48
2023-02-01T04:23:02.847Z,1004.62
2023-02-01T04:24:02.846Z,1004.62
2023-02-01T04:25:02.838Z,1004.58
2023-02-01T04:26:02.808Z,1004.62
2023-02-01T04:27:02.809Z,1004.59
2023-02-01T04:28:02.792Z,1004.57
2023-02-01T04:29:02.779Z,1004.62
2023-02-01T04:30:02.765Z,1004.59
2023-02-01T04:31:02.939Z,1004.59
2023-02-01T04:32:02.745Z,1004.57
2023-02-01T04:33:02.739Z,1004.56
2023-02-01T04:34:02.727Z,1004.61
2023-02-01T04:35:02.719Z,1004.55
2023-02-01T04:36:02.703Z,1004.54
2023-02-01T04:37:02.700Z,1004.55
2023-02-01T04:38:02.684Z,1004.51
2023-02-01T04:39:02.663Z,1004.35
2023-02-01T04:40:02.658Z,1004.38
2023-02-01T04:41:02.648Z,1004.50
2023-02-01T04:42:02.644Z,1004.59
2023-02-01T04:43:02.650Z,1004.49
2023-02-01T04:44:02.623Z,1004.45
2023-02-01T04:45:02.614Z,1004.52
2023-02-01T04:46:02.622Z,1004.56
2023-02-01T04:47:02.618Z,1004.43
2023-02-01T04:48:02.568Z,1004.45
2023-02-01T04:49:02.564Z,1004.47
2023-02-01T04:50:02.556Z,1004.48
2023-02-01T04:51:02.537Z,1004.49
2023-02-01T04:52:02.526Z,1004.37
2023-02-01T04:53:02.509Z,1004.38
2023-02-01T04:54:02.498Z,1004.43
2023-02-01T04:55:02.501Z,1004.41
2023-02-01T04:56:02.484Z,1004.37
2023-02-01T04:57:02.473Z,1004.46
2023-02-01T04:58:02.459Z,1004.38
2023-02-01T04:59:02.439Z,1004.34
2023-02-01T05:00:02.429Z,1004.37
2023-02-01T05:01:02.455Z,1004.37
2023-02-01T05:02:02.425Z,1004.38
2023-02-01T05:03:02.426Z,1004.30
2023-02-01T05:04:02.385Z,1004.32
2023-02-01T05:05:02.453Z,1004.26
2023-02-01T05:06:02.370Z,1004.28
2023-02-01T05:07:02.368Z,1004.30
2023-02-01T05:08:02.354Z,1004.25
2023-02-01T05:09:02.337Z,1004.28
2023-02-01T05:10:02.327Z,1004.26
2023-02-01T05:11:02.323Z,1004.19
2023-02-01T05:12:02.322Z,1004.16
2023-02-01T05:13:02.303Z,1004.19
2023-02-01T05:14:02.746Z,1004.21
2023-02-01T05:15:02.269Z,1004.21
2023-02-01T05:16:02.330Z,1004.18
2023-02-01T05:17:02.260Z,1004.17
2023-02-01T05:18:02.234Z,1004.14
2023-02-01T05:19:02.258Z,1004.11
2023-02-01T05:20:02.244Z,1004.14
2023-02-01T05:21:02.197Z,1004.24
2023-02-01T05:22:02.200Z,1004.13
2023-02-01T05:23:02.177Z,1004.06
2023-02-01T05:24:02.167Z,1004.12
2023-02-01T05:25:02.167Z,1004.08
2023-02-01T05:26:02.176Z,1004.13
2023-02-01T05:27:02.146Z,1004.16
2023-02-01T05:28:02.140Z,1004.12
2023-02-01T05:29:02.115Z,1004.12
2023-02-01T05:30:02.108Z,1004.01
2023-02-01T05:31:02.163Z,1004.02
2023-02-01T05:32:19.523Z,1004.03
2023-02-01T05:33:02.070Z,1004.01
2023-02-01T05:34:02.068Z,1004.05
2023-02-01T05:35:02.068Z,1004.04
2023-02-01T05:36:02.041Z,1004.13
2023-02-01T05:37:02.031Z,1004.13
2023-02-01T05:38:02.017Z,1004.02
2023-02-01T05:39:02.017Z,1004.11
2023-02-01T05:40:02.002Z,1004.05
2023-02-01T05:41:01.989Z,1004.12
2023-02-01T05:42:01.966Z,1004.06
2023-02-01T05:43:01.959Z,1004.08
2023-02-01T05:44:01.959Z,1004.11
2023-02-01T05:45:01.938Z,1004.04
2023-02-01T05:46:01.979Z,1004.07
2023-02-01T05:47:01.945Z,1004.00
2023-02-01T05:48:01.928Z,1004.06
2023-02-01T05:49:01.938Z,1003.98
2023-02-01T05:50:01.940Z,1004.07
2023-02-01T05:51:01.896Z,1003.97
2023-02-01T05:52:01.866Z,1004.01
2023-02-01T05:53:01.847Z,1003.90
2023-02-01T05:54:01.843Z,1003.90
2023-02-01T05:55:01.836Z,1003.97
2023-02-01T05:56:01.815Z,1003.81
2023-02-01T05:57:01.806Z,1003.78
2023-02-01T05:58:01.795Z,1003.92
2023-02-01T05:59:02.857Z,1003.79
2023-02-01T06:00:01.771Z,1003.91
2023-02-01T06:01:01.767Z,1003.78
2023-02-01T06:02:01.757Z,1003.76
2023-02-01T06:03:01.783Z,1003.95
2023-02-01T06:04:01.799Z,1003.83
2023-02-01T06:05:01.721Z,1003.74
2023-02-01T06:06:01.713Z,1003.81
2023-02-01T06:07:01.725Z,1003.85
2023-02-01T06:08:01.692Z,1003.83
2023-02-01T06:09:01.680Z,1003.82
2023-02-01T06:10:01.682Z,1003.81
2023-02-01T06:11:01.651Z,1003.81
2023-02-01T06:12:01.651Z,1003.81
2023-02-01T06:13:01.634Z,1003.86
2023-02-01T06:14:01.625Z,1003.78
2023-02-01T06:15:01.616Z,1003.82
2023-02-01T06:16:01.678Z,1003.77
2023-02-01T06:17:01.596Z,1003.80
2023-02-01T06:18:01.577Z,1003.81
2023-02-01T06:19:01.590Z,1003.76
2023-02-01T06:20:01.554Z,1003.75
2023-02-01T06:21:01.600Z,1003.77
2023-02-01T06:22:01.582Z,1003.78
2023-02-01T06:23:01.549Z,1003.81
2023-02-01T06:24:01.538Z,1003.82
2023-02-01T06:25:01.539Z,1003.81
2023-02-01T06:26:01.499Z,1003.79
2023-02-01T06:27:01.485Z,1003.73
2023-02-01T06:28:01.475Z,1003.82
2023-02-01T06:29:01.459Z,1003.91
2023-02-01T06:30:01.496Z,1003.80
2023-02-01T06:31:01.520Z,1003.82
2023-02-01T06:32:01.556Z,1003.79
2023-02-01T06:33:03.416Z,1003.74
2023-02-01T06:34:01.401Z,1003.78
2023-02-01T06:35:01.407Z,1003.81
2023-02-01T06:36:01.388Z,1003.78
2023-02-01T06:37:01.375Z,1003.78
2023-02-01T06:38:01.365Z,1003.75
2023-02-01T06:39:01.394Z,1003.78
2023-02-01T06:40:01.340Z,1003.75
2023-02-01T06:41:01.342Z,1003.72
2023-02-01T06:42:01.315Z,1003.71
2023-02-01T06:43:01.306Z,1003.77
2023-02-01T06:44:01.296Z,1003.74
2023-02-01T06:45:01.284Z,1003.73
2023-02-01T06:46:01.281Z,1003.68
2023-02-01T06:47:01.292Z,1003.67
2023-02-01T06:48:01.262Z,1003.68
2023-02-01T06:49:01.258Z,1003.69
2023-02-01T06:50:01.240Z,1003.63
2023-02-01T06:51:01.217Z,1003.68
2023-02-01T06:52:01.208Z,1003.60
2023-02-01T06:53:01.207Z,1003.52
2023-02-01T06:54:01.207Z,1003.60
2023-02-01T06:55:01.221Z,1003.60
2023-02-01T06:56:01.198Z,1003.54
2023-02-01T06:57:01.164Z,1003.56
2023-02-01T06:58:01.155Z,1003.51
2023-02-01T06:59:01.136Z,1003.46
2023-02-01T07:00:01.137Z,1003.48
2023-02-01T07:01:01.184Z,1003.51
2023-02-01T07:02:01.260Z,1003.54
2023-02-01T07:03:03.089Z,1003.44
2023-02-01T07:04:01.088Z,1003.43
2023-02-01T07:05:01.072Z,1003.39
2023-02-01T07:06:01.054Z,1003.48
2023-02-01T07:07:01.048Z,1003.40
2023-02-01T07:08:01.052Z,1003.36
2023-02-01T07:09:01.027Z,1003.41
2023-02-01T07:10:03.014Z,1003.37
2023-02-01T07:11:01.028Z,1003.39
2023-02-01T07:12:01.015Z,1003.37
2023-02-01T07:13:00.994Z,1003.37
2023-02-01T07:14:00.983Z,1003.35
2023-02-01T07:15:00.952Z,1003.39
2023-02-01T07:16:01.001Z,1003.41
2023-02-01T07:17:00.937Z,1003.43
2023-02-01T07:18:00.932Z,1003.37
2023-02-01T07:19:00.921Z,1003.35
2023-02-01T07:20:00.917Z,1003.40
2023-02-01T07:21:00.908Z,1003.36
2023-02-01T07:22:00.893Z,1003.36
2023-02-01T07:23:00.876Z,1003.25
2023-02-01T07:24:00.867Z,1003.29
2023-02-01T07:25:00.858Z,1003.34
2023-02-01T07:26:00.842Z,1003.37
2023-02-01T07:27:00.877Z,1003.33
2023-02-01T07:28:00.816Z,1003.34
2023-02-01T07:29:00.820Z,1003.30
2023-02-01T07:30:00.810Z,1003.22
2023-02-01T07:31:00.828Z,1003.24
2023-02-01T07:32:00.784Z,1003.21
2023-02-01T07:33:00.764Z,1003.14
2023-02-01T07:34:00.749Z,1003.17
2023-02-01T07:35:00.739Z,1003.11
2023-02-01T07:36:00.733Z,1003.09
2023-02-01T07:37:00.738Z,1003.06
2023-02-01T07:38:00.717Z,1003.07
2023-02-01T07:39:00.697Z,1003.05
2023-02-01T07:40:00.722Z,1003.06
2023-02-01T07:41:00.685Z,1003.01
2023-02-01T07:42:00.660Z,1003.06
2023-02-01T07:43:00.679Z,1003.00
2023-02-01T07:44:00.654Z,1003.00
2023-02-01T07:45:14.751Z,1003.02
2023-02-01T07:46:00.682Z,1003.02
2023-02-01T07:47:00.618Z,1003.04
2023-02-01T07:48:00.598Z,1002.98
2023-02-01T07:49:00.610Z,1003.08
2023-02-01T07:50:00.584Z,1003.10
2023-02-01T07:51:00.582Z,1003.09
2023-02-01T07:52:00.559Z,1003.18
2023-02-01T07:53:00.545Z,1003.04
2023-02-01T07:54:00.539Z,1003.18
2023-02-01T07:55:00.528Z,1003.06
2023-02-01T07:56:00.544Z,1003.19
2023-02-01T07:57:00.497Z,1003.10
2023-02-01T07:58:00.494Z,1003.11
2023-02-01T07:59:00.534Z,1003.20
2023-02-01T08:00:00.467Z,1003.18
2023-02-01T08:01:00.536Z,1003.14
2023-02-01T08:02:00.499Z,1003.16
2023-02-01T08:03:00.432Z,1003.14
2023-02-01T08:04:00.444Z,1003.21
2023-02-01T08:05:00.415Z,1003.11
2023-02-01T08:06:00.416Z,1003.18
2023-02-01T08:07:00.397Z,1003.18
2023-02-01T08:08:00.381Z,1003.13
2023-02-01T08:09:00.380Z,1003.14
2023-02-01T08:10:00.373Z,1003.15
2023-02-01T08:11:00.371Z,1003.11
2023-02-01T08:12:00.337Z,1003.14
2023-02-01T08:13:00.333Z,1003.04
2023-02-01T08:14:00.430Z,1003.05
2023-02-01T08:15:00.343Z,1003.13
2023-02-01T08:16:00.319Z,1003.06
2023-02-01T08:17:02.289Z,1003.08
2023-02-01T08:18:00.268Z,1003.09
2023-02-01T08:19:00.263Z,1003.16
2023-02-01T08:20:00.251Z,1003.15
2023-02-01T08:21:00.244Z,1003.19
2023-02-01T08:22:00.261Z,1003.15
2023-02-01T08:23:00.218Z,1003.13
2023-02-01T08:24:00.208Z,1003.21
2023-02-01T08:25:00.190Z,1003.19
2023-02-01T08:26:00.184Z,1003.22
2023-02-01T08:27:00.184Z,1003.22
2023-02-01T08:28:00.163Z,1003.18
2023-02-01T08:29:00.159Z,1003.26
2023-02-01T08:30:00.263Z,1003.19
2023-02-01T08:31:00.225Z,1003.18
2023-02-01T08:32:00.282Z,1003.18
2023-02-01T08:33:00.116Z,1003.16
2023-02-01T08:34:00.174Z,1003.16
2023-02-01T08:35:00.119Z,1003.22
2023-02-01T08:36:00.103Z,1003.16
2023-02-01T08:37:00.123Z,1003.21
2023-02-01T08:38:00.087Z,1003.23
2023-02-01T08:39:00.050Z,1003.12
2023-02-01T08:40:00.062Z,1003.21
2023-02-01T08:41:00.024Z,1003.17
2023-02-01T08:42:00.009Z,1003.18
2023-02-01T08:42:59.991Z,1003.22
2023-02-01T08:43:59.981Z,1003.27
2023-02-01T08:44:59.975Z,1003.15
2023-02-01T08:45:59.985Z,1003.23
2023-02-01T08:46:59.977Z,1003.28
2023-02-01T08:47:59.937Z,1003.34
2023-02-01T08:48:59.928Z,1003.31
2023-02-01T08:49:59.914Z,1003.29
2023-02-01T08:50:59.913Z,1003.20
2023-02-01T08:52:04.107Z,1003.20
2023-02-01T08:52:59.882Z,1003.23
2023-02-01T08:53:59.885Z,1003.24
2023-02-01T08:54:59.863Z,1003.26
2023-02-01T08:55:59.853Z,1003.29
2023-02-01T08:57:01.944Z,1003.35
2023-02-01T08:57:59.832Z,1003.25
2023-02-01T08:58:59.827Z,1003.41
2023-02-01T08:59:59.816Z,1003.34
2023-02-01T09:00:59.821Z,1003.36
2023-02-01T09:01:59.789Z,1003.41
2023-02-01T09:02:59.813Z,1003.41
2023-02-01T09:03:59.861Z,1003.42
2023-02-01T09:04:59.750Z,1003.49
2023-02-01T09:05:59.741Z,1003.46
2023-02-01T09:06:59.734Z,1003.50
2023-02-01T09:07:59.723Z,1003.46
2023-02-01T09:08:59.709Z,1003.50
2023-02-01T09:09:59.694Z,1003.32
2023-02-01T09:11:02.159Z,1003.37
2023-02-01T09:11:59.684Z,1003.37
2023-02-01T09:12:59.670Z,1003.41
2023-02-01T09:13:59.660Z,1003.44
2023-02-01T09:14:59.755Z,1003.39
2023-02-01T09:15:59.763Z,1003.47
2023-02-01T09:16:59.631Z,1003.46
2023-02-01T09:17:59.608Z,1003.46
2023-02-01T09:19:23.923Z,1003.54
2023-02-01T09:19:59.583Z,1003.60
2023-02-01T09:20:59.587Z,1003.51
2023-02-01T09:21:59.565Z,1003.60
2023-02-01T09:22:59.561Z,1003.55
2023-02-01T09:23:59.552Z,1003.60
2023-02-01T09:24:59.567Z,1003.60
2023-02-01T09:25:59.519Z,1003.62
2023-02-01T09:26:59.579Z,1003.68
2023-02-01T09:27:59.508Z,1003.56
2023-02-01T09:28:59.487Z,1003.68
2023-02-01T09:29:59.483Z,1003.63
2023-02-01T09:30:59.596Z,1003.66
2023-02-01T09:32:03.988Z,1003.73
2023-02-01T09:32:59.443Z,1003.75
2023-02-01T09:33:59.472Z,1003.71
2023-02-01T09:34:59.465Z,1003.74
2023-02-01T09:35:59.419Z,1003.71
2023-02-01T09:36:59.397Z,1003.74
2023-02-01T09:37:59.393Z,1003.77
2023-02-01T09:38:59.398Z,1003.74
2023-02-01T09:39:59.372Z,1003.76
2023-02-01T09:40:59.361Z,1003.80
2023-02-01T09:41:59.361Z,1003.79
2023-02-01T09:42:59.341Z,1003.81
2023-02-01T09:43:59.322Z,1003.89
2023-02-01T09:44:59.319Z,1003.95
2023-02-01T09:45:59.327Z,1003.95
2023-02-01T09:46:59.290Z,1003.93
2023-02-01T09:47:59.287Z,1004.03
2023-02-01T09:48:59.272Z,1003.96
2023-02-01T09:49:59.267Z,1004.08
2023-02-01T09:50:59.275Z,1004.01
2023-02-01T09:51:59.251Z,1004.02
2023-02-01T09:52:59.230Z,1003.93
2023-02-01T09:53:59.220Z,1004.03
2023-02-01T09:54:59.201Z,1003.97
2023-02-01T09:55:59.191Z,1003.94
2023-02-01T09:56:59.183Z,1003.99
2023-02-01T09:57:59.166Z,1003.95
2023-02-01T09:58:59.166Z,1003.99
2023-02-01T09:59:59.383Z,1004.04
2023-02-01T10:00:59.145Z,1004.00
2023-02-01T10:01:59.132Z,1003.99
2023-02-01T10:02:59.141Z,1004.00
2023-02-01T10:03:59.111Z,1004.09
2023-02-01T10:04:59.101Z,1004.00
2023-02-01T10:05:59.091Z,1004.08
2023-02-01T10:06:59.094Z,1004.06
2023-02-01T10:07:59.064Z,1004.08
2023-02-01T10:08:59.067Z,1004.07
2023-02-01T10:09:59.050Z,1004.10
2023-02-01T10:11:59.022Z,1004.01
2023-02-01T10:12:59.013Z,1004.05
2023-02-01T10:13:58.996Z,1004.04
2023-02-01T10:14:59.047Z,1004.02
2023-02-01T10:15:59.056Z,1004.04
2023-02-01T10:16:59.062Z,1004.02
2023-02-01T10:17:59.082Z,1004.08
2023-02-01T10:18:58.950Z,1004.08
2023-02-01T10:19:58.947Z,1004.06
2023-02-01T10:20:58.918Z,1004.09
2023-02-01T10:21:58.911Z,1004.04
2023-02-01T10:23:26.897Z,1004.09
2023-02-01T10:24:01.134Z,1004.07
2023-02-01T10:24:58.888Z,1004.11
2023-02-01T10:25:58.871Z,1004.10
2023-02-01T10:26:58.936Z,1004.11
2023-02-01T10:27:58.846Z,1004.11
2023-02-01T10:28:58.834Z,1004.01
2023-02-01T10:29:58.821Z,1004.12
2023-02-01T10:30:58.945Z,1004.09
2023-02-01T10:31:58.868Z,1004.13
2023-02-01T10:32:58.791Z,1004.16
2023-02-01T10:33:58.786Z,1004.04
2023-02-01T10:34:58.779Z,1004.09
2023-02-01T10:35:58.767Z,1004.08
2023-02-01T10:36:58.759Z,1004.14
2023-02-01T10:37:58.731Z,1004.13
2023-02-01T10:38:58.755Z,1004.11
2023-02-01T10:39:58.737Z,1004.12
2023-02-01T10:40:58.728Z,1004.18
2023-02-01T10:41:58.688Z,1004.13
2023-02-01T10:42:58.688Z,1004.09
2023-02-01T10:43:58.665Z,1004.10
2023-02-01T10:44:58.670Z,1004.19
2023-02-01T10:45:58.684Z,1004.11
2023-02-01T10:46:58.634Z,1004.17
2023-02-01T10:47:58.647Z,1004.20
2023-02-01T10:48:58.615Z,1004.24
2023-02-01T10:49:58.611Z,1004.23
2023-02-01T10:50:58.598Z,1004.19
2023-02-01T10:51:58.584Z,1004.14
2023-02-01T10:52:58.587Z,1004.16
2023-02-01T10:53:58.567Z,1004.19
2023-02-01T10:54:58.585Z,1004.18
2023-02-01T10:55:58.540Z,1004.24
2023-02-01T10:57:00.455Z,1004.26
2023-02-01T10:57:58.525Z,1004.22
2023-02-01T10:58:58.502Z,1004.23
2023-02-01T10:59:58.507Z,1004.20
2023-02-01T11:00:58.486Z,1004.15
2023-02-01T11:01:59.627Z,1004.15
2023-02-01T11:02:58.527Z,1004.07
2023-02-01T11:03:58.451Z,1004.06
2023-02-01T11:04:58.444Z,1004.10
2023-02-01T11:05:58.426Z,1004.09
2023-02-01T11:06:58.412Z,1004.08
2023-02-01T11:07:58.411Z,1004.01
2023-02-01T11:08:58.403Z,1004.02
2023-02-01T11:09:58.382Z,1003.98
2023-02-01T11:10:58.408Z,1003.93
2023-02-01T11:11:58.367Z,1003.97
2023-02-01T11:12:58.352Z,1003.90
2023-02-01T11:13:58.357Z,1003.95
2023-02-01T11:14:58.445Z,1003.94
2023-02-01T11:15:58.371Z,1003.90
2023-02-01T11:16:58.311Z,1003.92
2023-02-01T11:17:58.300Z,1003.87
2023-02-01T11:18:58.290Z,1003.90
2023-02-01T11:19:58.310Z,1003.88
2023-02-01T11:20:58.275Z,1003.90
2023-02-01T11:21:58.261Z,1003.97
2023-02-01T11:22:58.256Z,1003.94
2023-02-01T11:23:58.241Z,1003.88
2023-02-01T11:24:58.222Z,1003.84
2023-02-01T11:25:58.209Z,1003.91
2023-02-01T11:26:58.232Z,1003.92
2023-02-01T11:27:58.192Z,1003.84
2023-02-01T11:28:58.219Z,1003.85
2023-02-01T11:29:58.171Z,1003.90
2023-02-01T11:30:58.345Z,1003.81
2023-02-01T11:31:58.149Z,1003.67
2023-02-01T11:32:58.128Z,1003.71
2023-02-01T11:33:58.139Z,1003.70
2023-02-01T11:34:58.120Z,1003.63
2023-02-01T11:35:58.095Z,1003.63
2023-02-01T11:36:58.082Z,1003.57
2023-02-01T11:37:58.077Z,1003.66
2023-02-01T11:38:58.061Z,1003.60
2023-02-01T11:39:58.057Z,1003.53
2023-02-01T11:40:58.052Z,1003.62
2023-02-01T11:41:58.038Z,1003.57
2023-02-01T11:42:58.093Z,1003.56
2023-02-01T11:43:58.001Z,1003.58
2023-02-01T11:44:57.990Z,1003.54
2023-02-01T11:45:57.979Z,1003.50
2023-02-01T11:46:57.981Z,1003.53
2023-02-01T11:47:57.963Z,1003.48
2023-02-01T11:48:57.956Z,1003.44
2023-02-01T11:49:57.931Z,1003.45
2023-02-01T11:50:57.927Z,1003.41
2023-02-01T11:51:57.917Z,1003.40
2023-02-01T11:52:57.997Z,1003.40
2023-02-01T11:53:57.906Z,1003.40
2023-02-01T11:54:57.883Z,1003.43
2023-02-01T11:55:57.866Z,1003.41
2023-02-01T11:56:57.859Z,1003.41
2023-02-01T11:57:57.858Z,1003.37
2023-02-01T11:58:57.860Z,1003.32
2023-02-01T11:59:57.832Z,1003.33
2023-02-01T12:00:57.822Z,1003.30
2023-02-01T12:01:57.888Z,1003.30
2023-02-01T12:02:57.838Z,1003.34
2023-02-01T12:03:57.778Z,1003.31
2023-02-01T12:04:57.761Z,1003.42
2023-02-01T12:05:57.752Z,1003.33